Time;durP1;ratioP1;P1;durP2;ratioP2;P2;SDS_P1;SDS_P2;PMS_P1;PMS_P2;Temp;Humidity;BMP_temperature;BMP_pressure;BME280_temperature;BME280_humidity;BME280_pressure;Samples;Min_cycle;Max_cycle;Signal;HPM_P1;HPM_P2
2021/10/06 00:02:24;;;;;;;3.85;1.80;;;;;;;16.65;100.00;96157.81;5005339;28;20073;-52
2021/10/06 00:04:53;;;;;;;1.75;1.65;;;;;;;16.93;100.00;96155.25;5009568;28;20578;-52
2021/10/06 00:07:21;;;;;;;1.58;1.48;;;;;;;16.57;100.00;96159.59;5012744;28;20088;-50
2021/10/06 00:09:50;;;;;;;1.73;1.63;;;;;;;16.58;100.00;96163.91;5025706;28;20507;-50
2021/10/06 00:12:18;;;;;;;2.55;1.67;;;;;;;16.33;100.00;96166.09;5035578;28;20065;-50
2021/10/06 00:14:46;;;;;;;2.92;1.83;;;;;;;16.28;100.00;96171.16;5028078;28;20072;-53
2021/10/06 00:17:25;;;;;;;1.60;1.50;;;;;;;16.69;100.00;96170.59;5033707;28;20079;-48
2021/10/06 00:19:53;;;;;;;4.30;1.80;;;;;;;16.56;100.00;96184.56;5034739;28;20081;-56
2021/10/06 00:22:22;;;;;;;2.17;1.90;;;;;;;16.35;100.00;96174.72;5037132;28;20088;-54
2021/10/06 00:24:51;;;;;;;1.73;1.50;;;;;;;16.23;100.00;96180.72;5011465;28;20074;-56
2021/10/06 00:27:19;;;;;;;1.98;1.73;;;;;;;16.12;100.00;96182.03;5007864;28;20061;-48
2021/10/06 00:29:48;;;;;;;1.70;1.60;;;;;;;15.92;100.00;96191.56;5021056;28;20080;-53
2021/10/06 00:32:17;;;;;;;1.67;1.55;;;;;;;16.04;100.00;96190.94;5029171;28;20084;-49
2021/10/06 00:34:47;;;;;;;3.13;1.70;;;;;;;15.92;100.00;96203.03;5009823;28;20073;-47
2021/10/06 00:37:15;;;;;;;2.55;1.55;;;;;;;15.70;100.00;96209.28;5029288;28;20452;-53
2021/10/06 00:39:43;;;;;;;1.63;1.52;;;;;;;15.59;100.00;96215.84;5035109;28;20091;-51
2021/10/06 00:42:12;;;;;;;3.03;1.70;;;;;;;15.68;100.00;96220.09;5025307;28;20065;-51
2021/10/06 00:44:40;;;;;;;2.88;1.70;;;;;;;15.43;100.00;96214.16;5030672;28;20057;-48
2021/10/06 00:47:12;;;;;;;2.00;1.60;;;;;;;15.50;100.00;96231.03;5029513;28;20083;-57
2021/10/06 00:49:40;;;;;;;2.15;1.90;;;;;;;15.47;100.00;96233.22;5030405;28;20073;-55
2021/10/06 00:52:13;;;;;;;4.63;1.50;;;;;;;15.84;100.00;96235.88;5025614;28;20372;-49
2021/10/06 00:54:41;;;;;;;3.25;1.75;;;;;;;15.57;100.00;96245.25;5027632;28;20580;-52
2021/10/06 00:57:11;;;;;;;2.03;1.70;;;;;;;15.73;100.00;96238.16;5030289;28;20076;-49
2021/10/06 00:59:40;;;;;;;2.85;1.90;;;;;;;15.82;100.00;96245.03;5019560;28;20520;-52
2021/10/06 01:02:08;;;;;;;3.65;1.95;;;;;;;15.76;100.00;96243.09;5009854;28;20076;-53
2021/10/06 01:04:38;;;;;;;2.03;1.80;;;;;;;15.53;100.00;96262.56;5039948;28;20076;-47
2021/10/06 01:07:07;;;;;;;3.80;1.60;;;;;;;15.89;100.00;96260.06;5009764;28;20180;-53
2021/10/06 01:09:37;;;;;;;2.10;1.60;;;;;;;15.58;100.00;96267.34;5003665;28;20076;-46
2021/10/06 01:12:06;;;;;;;2.60;1.70;;;;;;;16.01;100.00;96260.44;5019786;28;20077;-50
2021/10/06 01:14:35;;;;;;;2.20;1.83;;;;;;;15.44;100.00;96275.09;5027033;28;20065;-56
2021/10/06 01:17:04;;;;;;;2.60;1.63;;;;;;;15.56;100.00;96269.38;5025765;28;20102;-48
2021/10/06 01:19:32;;;;;;;2.53;1.63;;;;;;;15.69;100.00;96264.28;5028250;28;20084;-53
2021/10/06 01:22:02;;;;;;;1.85;1.67;;;;;;;15.61;100.00;96266.97;5029113;28;20065;-56
2021/10/06 01:24:31;;;;;;;3.60;1.95;;;;;;;15.42;100.00;96271.81;5031492;28;20080;-56
2021/10/06 01:27:00;;;;;;;2.95;1.90;;;;;;;15.39;100.00;96279.31;5027679;28;20522;-49
2021/10/06 01:29:29;;;;;;;3.70;1.77;;;;;;;15.54;100.00;96276.69;5023177;28;20069;-55
2021/10/06 01:31:57;;;;;;;2.22;1.60;;;;;;;15.76;100.00;96269.69;5029370;28;20081;-53
2021/10/06 01:34:26;;;;;;;5.43;1.85;;;;;;;15.48;100.00;96285.38;5033495;28;20076;-52
2021/10/06 01:36:55;;;;;;;3.05;1.70;;;;;;;15.65;100.00;96278.91;5025107;28;20065;-49
2021/10/06 01:39:25;;;;;;;4.00;2.00;;;;;;;15.53;100.00;96289.16;5010944;28;20069;-55
2021/10/06 01:41:53;;;;;;;3.42;1.90;;;;;;;15.78;100.00;96291.59;5011382;28;20069;-55
2021/10/06 01:44:22;;;;;;;4.75;1.80;;;;;;;15.91;100.00;96283.84;5027891;28;20888;-51
2021/10/06 01:46:52;;;;;;;2.78;1.75;;;;;;;15.64;100.00;96288.72;5026446;28;20065;-52
2021/10/06 01:49:20;;;;;;;3.83;1.92;;;;;;;15.39;100.00;96289.94;5013198;28;20084;-55
2021/10/06 01:51:51;;;;;;;2.80;1.65;;;;;;;15.34;100.00;96286.97;5028392;28;20075;-49
2021/10/06 01:54:19;;;;;;;2.22;1.83;;;;;;;15.29;100.00;96286.69;5026101;28;20069;-50
2021/10/06 01:56:49;;;;;;;1.63;1.52;;;;;;;15.35;100.00;96289.47;5025603;28;20108;-54
2021/10/06 01:59:18;;;;;;;2.17;1.63;;;;;;;15.39;100.00;96292.59;5021630;28;20583;-47
2021/10/06 02:01:46;;;;;;;2.13;1.65;;;;;;;15.64;100.00;96288.72;5003717;28;20077;-49
2021/10/06 02:04:15;;;;;;;4.40;1.58;;;;;;;15.79;100.00;96286.09;5007286;28;20078;-50
2021/10/06 02:06:43;;;;;;;1.92;1.55;;;;;;;15.66;100.00;96278.75;5027750;28;20095;-49
2021/10/06 02:09:11;;;;;;;2.20;1.60;;;;;;;16.10;100.00;96278.00;5017060;28;20069;-46
2021/10/06 02:11:40;;;;;;;1.95;1.58;;;;;;;15.90;100.00;96277.69;5017701;28;20057;-46
2021/10/06 02:14:10;;;;;;;2.78;2.13;;;;;;;15.95;100.00;96284.28;5028859;28;20069;-51
2021/10/06 02:16:38;;;;;;;2.13;1.65;;;;;;;15.98;100.00;96289.25;5038130;28;20089;-54
2021/10/06 02:19:07;;;;;;;5.30;1.70;;;;;;;15.97;100.00;96291.09;5027982;28;20080;-53
2021/10/06 02:21:36;;;;;;;3.15;1.77;;;;;;;16.01;100.00;96292.38;5029219;28;20065;-55
2021/10/06 02:24:05;;;;;;;3.95;1.80;;;;;;;15.94;100.00;96288.78;5022528;28;20084;-51
2021/10/06 02:26:34;;;;;;;2.70;1.50;;;;;;;15.56;100.00;96293.28;5008881;28;20542;-46
2021/10/06 02:29:03;;;;;;;3.42;1.70;;;;;;;15.61;100.00;96298.88;5010318;28;20081;-56
2021/10/06 02:31:33;;;;;;;3.28;1.50;;;;;;;15.70;100.00;96299.69;5029820;28;20069;-46
2021/10/06 02:34:01;;;;;;;2.83;1.75;;;;;;;15.54;100.00;96298.75;5032647;28;20083;-47
2021/10/06 02:36:30;;;;;;;2.22;1.73;;;;;;;15.72;100.00;96294.97;5029673;28;20065;-47
2021/10/06 02:38:58;;;;;;;2.38;1.60;;;;;;;16.04;100.00;96291.19;5017218;28;20069;-57
2021/10/06 02:41:27;;;;;;;4.18;1.80;;;;;;;16.11;100.00;96287.59;5012347;28;20080;-51
2021/10/06 02:43:55;;;;;;;2.50;1.60;;;;;;;15.97;100.00;96291.09;5034637;28;20440;-50
2021/10/06 02:46:24;;;;;;;5.03;1.80;;;;;;;15.54;100.00;96296.09;5037303;28;20156;-50
2021/10/06 02:48:53;;;;;;;3.03;1.88;;;;;;;15.88;100.00;96290.34;5029944;28;20080;-51
2021/10/06 02:51:22;;;;;;;4.57;1.70;;;;;;;16.06;100.00;96283.84;5028659;28;20065;-53
2021/10/06 02:53:50;;;;;;;3.20;1.70;;;;;;;15.90;100.00;96284.84;5032632;28;20743;-53
2021/10/06 02:56:19;;;;;;;2.95;1.90;;;;;;;16.26;100.00;96287.59;5026542;28;20073;-54
2021/10/06 02:58:47;;;;;;;2.47;1.55;;;;;;;16.56;100.00;96295.56;5001427;28;20444;-53
2021/10/06 03:01:16;;;;;;;1.83;1.60;;;;;;;16.71;100.00;96292.88;5035082;28;20080;-51
2021/10/06 03:03:45;;;;;;;3.00;1.60;;;;;;;16.18;100.00;96301.00;5007436;28;20520;-54
2021/10/06 03:06:15;;;;;;;5.10;1.70;;;;;;;16.35;100.00;96299.81;5011213;28;20097;-56
2021/10/06 03:08:43;;;;;;;2.58;1.70;;;;;;;16.34;100.00;96298.16;5017736;28;20068;-55
2021/10/06 03:11:12;;;;;;;2.45;1.70;;;;;;;16.63;100.00;96301.78;5025793;28;20072;-54
2021/10/06 03:13:40;;;;;;;3.00;1.92;;;;;;;16.37;100.00;96313.72;5031417;28;20061;-56
2021/10/06 03:16:09;;;;;;;3.90;1.90;;;;;;;16.01;100.00;96323.47;5035020;28;20511;-51
2021/10/06 03:18:37;;;;;;;4.93;1.70;;;;;;;16.13;100.00;96324.66;5011087;28;20062;-54
2021/10/06 03:21:06;;;;;;;2.00;1.70;;;;;;;16.29;100.00;96319.16;5019042;28;20071;-53
2021/10/06 03:23:35;;;;;;;2.85;2.03;;;;;;;16.03;100.00;96329.41;5039883;28;20657;-49
2021/10/06 03:26:04;;;;;;;1.88;1.60;;;;;;;15.48;100.00;96326.06;5030430;28;20506;-52
2021/10/06 03:28:32;;;;;;;4.55;2.00;;;;;;;15.76;100.00;96329.03;5031349;28;20091;-52
2021/10/06 03:31:01;;;;;;;3.08;1.60;;;;;;;15.71;100.00;96327.91;5041557;28;20074;-53
2021/10/06 03:33:29;;;;;;;2.28;1.60;;;;;;;15.28;100.00;96327.53;5025909;28;20079;-53
2021/10/06 03:35:58;;;;;;;1.73;1.45;;;;;;;15.44;100.00;96330.06;5022588;28;20535;-54
2021/10/06 03:38:26;;;;;;;3.28;1.83;;;;;;;15.59;100.00;96323.00;5007915;28;20061;-48
2021/10/06 03:40:56;;;;;;;3.67;1.50;;;;;;;15.52;100.00;96323.88;5008138;28;20145;-52
2021/10/06 03:43:24;;;;;;;2.38;1.50;;;;;;;15.69;100.00;96329.91;5009610;28;20108;-52
2021/10/06 03:45:53;;;;;;;2.50;1.70;;;;;;;15.70;100.00;96329.75;5004592;28;20074;-51
2021/10/06 03:48:21;;;;;;;3.40;1.77;;;;;;;15.47;100.00;96340.34;5022607;28;20076;-47
2021/10/06 03:50:50;;;;;;;2.22;1.60;;;;;;;15.29;100.00;96347.81;5018893;28;20067;-55
2021/10/06 03:53:18;;;;;;;3.75;1.67;;;;;;;15.40;100.00;96347.38;5010777;28;20547;-55
2021/10/06 03:55:47;;;;;;;2.13;1.55;;;;;;;15.45;100.00;96355.66;5032392;28;20077;-57
2021/10/06 03:58:17;;;;;;;3.35;1.77;;;;;;;15.66;100.00;96352.38;5030095;28;22383;-49
2021/10/06 04:00:45;;;;;;;;;;;;;;;15.44;100.00;96361.97;5029130;28;20072;-48
2021/10/06 04:03:15;;;;;;;2.15;1.58;;;;;;;15.49;100.00;96364.09;5033716;28;19963;-57
2021/10/06 04:05:43;;;;;;;3.90;1.88;;;;;;;15.73;100.00;96363.13;5032863;28;20068;-52
2021/10/06 04:08:11;;;;;;;6.78;3.25;;;;;;;15.63;100.00;96371.31;5034549;28;20456;-50
2021/10/06 04:10:40;;;;;;;4.85;1.70;;;;;;;15.37;100.00;96376.97;5036708;28;20088;-49
2021/10/06 04:13:08;;;;;;;2.75;1.70;;;;;;;14.98;100.00;96388.50;5037883;28;20076;-55
2021/10/06 04:15:38;;;;;;;6.25;2.00;;;;;;;15.63;100.00;96379.28;5033313;28;20414;-52
2021/10/06 04:18:10;;;;;;;5.45;1.80;;;;;;;15.77;100.00;96385.69;5028235;28;20073;-49
2021/10/06 04:20:39;;;;;;;4.00;1.77;;;;;;;15.34;100.00;96385.28;5033310;28;20113;-52
2021/10/06 04:23:08;;;;;;;3.63;1.70;;;;;;;15.24;100.00;96382.03;5041766;28;20072;-50
2021/10/06 04:25:41;;;;;;;3.72;1.73;;;;;;;14.84;100.00;96374.13;5027578;28;20092;-51
2021/10/06 04:28:09;;;;;;;9.20;2.15;;;;;;;14.99;100.00;96382.16;5028049;28;20460;-53
2021/10/06 04:30:39;;;;;;;2.45;1.60;;;;;;;15.51;100.00;96386.81;5037821;28;20087;-59
2021/10/06 04:33:08;;;;;;;5.50;1.75;;;;;;;14.93;100.00;96381.06;5035387;28;20091;-56
2021/10/06 04:35:36;;;;;;;3.35;1.60;;;;;;;15.33;100.00;96384.47;5031642;28;20072;-51
2021/10/06 04:38:04;;;;;;;3.65;1.52;;;;;;;15.13;100.00;96383.25;5029323;28;20061;-53
2021/10/06 04:40:33;;;;;;;5.28;1.50;;;;;;;14.97;100.00;96394.81;5036603;28;20089;-54
2021/10/06 04:43:01;;;;;;;4.07;1.65;;;;;;;15.19;100.00;96393.19;5030794;28;20061;-46
2021/10/06 04:45:30;;;;;;;3.25;1.60;;;;;;;15.05;100.00;96396.59;5037732;28;20527;-53
2021/10/06 04:48:00;;;;;;;6.72;1.67;;;;;;;14.80;100.00;96399.38;5040085;28;20191;-55
2021/10/06 04:50:30;;;;;;;1.73;1.50;;;;;;;15.04;100.00;96394.94;5030133;28;20068;-48
2021/10/06 04:52:58;;;;;;;3.42;1.52;;;;;;;15.05;100.00;96393.94;5035122;28;20111;-51
2021/10/06 04:55:27;;;;;;;3.17;1.60;;;;;;;15.25;100.00;96400.47;5036063;28;20487;-49
2021/10/06 04:57:57;;;;;;;2.33;1.80;;;;;;;15.06;100.00;96396.41;5034076;28;20068;-54
2021/10/06 05:00:26;;;;;;;6.65;1.88;;;;;;;15.60;100.00;96406.22;5027712;28;20069;-57
2021/10/06 05:02:54;;;;;;;5.00;1.80;;;;;;;15.51;100.00;96408.09;5037816;28;20069;-49
2021/10/06 05:05:25;;;;;;;6.32;1.75;;;;;;;15.25;100.00;96408.44;5038952;28;20615;-54
2021/10/06 05:07:53;;;;;;;3.17;1.60;;;;;;;15.74;100.00;96410.78;5028979;28;20072;-47
2021/10/06 05:10:22;;;;;;;2.55;1.70;;;;;;;15.27;100.00;96413.56;5031181;28;20095;-52
2021/10/06 05:12:50;;;;;;;4.07;1.70;;;;;;;15.09;100.00;96413.81;5034408;28;20067;-51
2021/10/06 05:15:19;;;;;;;3.45;1.65;;;;;;;15.04;100.00;96424.97;5038507;28;20080;-54
2021/10/06 05:17:47;;;;;;;3.65;1.50;;;;;;;14.73;100.00;96424.94;5030396;28;20073;-53
2021/10/06 05:20:16;;;;;;;2.30;1.75;;;;;;;15.34;100.00;96425.97;5039612;28;20071;-52
2021/10/06 05:22:46;;;;;;;2.65;1.95;;;;;;;15.14;100.00;96436.22;5034207;28;20081;-57
2021/10/06 05:25:14;;;;;;;3.22;1.70;;;;;;;15.41;100.00;96437.53;5034179;28;20080;-55
2021/10/06 05:27:43;;;;;;;6.07;1.95;;;;;;;15.36;100.00;96441.75;5034470;28;20073;-57
2021/10/06 05:30:12;;;;;;;2.15;1.80;;;;;;;15.64;100.00;96445.56;5032689;28;20069;-57
2021/10/06 05:32:41;;;;;;;4.95;1.70;;;;;;;15.20;100.00;96454.09;5025501;28;20464;-54
2021/10/06 05:35:10;;;;;;;2.45;1.70;;;;;;;15.27;100.00;96456.06;5034101;28;20164;-50
2021/10/06 05:37:39;;;;;;;3.90;1.65;;;;;;;14.91;100.00;96461.88;5038083;28;20081;-50
2021/10/06 05:40:10;;;;;;;3.67;1.80;;;;;;;15.45;100.00;96461.97;5010204;28;20531;-55
2021/10/06 05:42:39;;;;;;;3.75;1.90;;;;;;;15.26;100.00;96473.84;5004882;28;20457;-53
2021/10/06 05:45:08;;;;;;;2.70;1.90;;;;;;;14.82;100.00;96470.84;5015143;28;20077;-59
2021/10/06 05:47:37;;;;;;;2.55;1.65;;;;;;;14.99;100.00;96477.78;5007788;28;20475;-54
2021/10/06 05:50:07;;;;;;;5.32;1.67;;;;;;;15.24;100.00;96480.31;5007755;28;20077;-51
2021/10/06 05:52:36;;;;;;;6.22;1.95;;;;;;;15.71;100.00;96476.78;5033002;28;20069;-48
2021/10/06 05:55:05;;;;;;;3.13;1.70;;;;;;;14.96;100.00;96481.59;5011940;28;20504;-54
2021/10/06 05:57:35;;;;;;;6.63;1.83;;;;;;;15.30;100.00;96483.13;5022435;28;20566;-55
2021/10/06 06:00:04;;;;;;;6.88;1.77;;;;;;;14.83;100.00;96483.13;5030529;28;20068;-54
2021/10/06 06:02:32;;;;;;;4.68;1.80;;;;;;;15.53;100.00;96485.00;5022186;28;20078;-59
2021/10/06 06:05:01;;;;;;;5.00;1.77;;;;;;;15.31;100.00;96484.78;5008077;28;20089;-55
2021/10/06 06:07:30;;;;;;;4.30;2.00;;;;;;;15.52;100.00;96488.66;5034049;28;20081;-49
2021/10/06 06:09:58;;;;;;;4.38;1.75;;;;;;;15.23;100.00;96497.28;5031183;28;20077;-54
2021/10/06 06:12:26;;;;;;;4.80;1.90;;;;;;;15.05;100.00;96502.81;5035174;28;20057;-53
2021/10/06 06:14:56;;;;;;;3.85;1.60;;;;;;;14.71;100.00;96504.72;5029835;28;20107;-58
2021/10/06 06:17:25;;;;;;;2.13;1.77;;;;;;;15.32;100.00;96509.53;5030469;28;20061;-54
2021/10/06 06:19:53;;;;;;;2.40;1.60;;;;;;;15.32;100.00;96510.34;5032147;28;20531;-55
2021/10/06 06:22:22;;;;;;;3.95;1.55;;;;;;;15.28;100.00;96503.75;5042857;28;20478;-56
2021/10/06 06:24:50;;;;;;;2.33;1.60;;;;;;;14.80;100.00;96515.34;5008360;28;20066;-56
2021/10/06 06:27:19;;;;;;;4.55;1.60;;;;;;;15.33;100.00;96506.69;5022661;28;20076;-55
2021/10/06 06:29:47;;;;;;;6.20;2.20;;;;;;;15.13;100.00;96513.41;5025294;28;20070;-49
2021/10/06 06:32:17;;;;;;;2.30;1.63;;;;;;;14.76;100.00;96520.13;5032986;28;20189;-45
2021/10/06 06:34:45;;;;;;;3.47;1.53;;;;;;;15.48;100.00;96520.06;5031075;28;20077;-46
2021/10/06 06:37:14;;;;;;;2.47;1.55;;;;;;;15.23;100.00;96521.19;5037890;28;20503;-54
2021/10/06 06:39:42;;;;;;;3.63;2.00;;;;;;;15.44;100.00;96527.56;5030732;28;20080;-58
2021/10/06 06:42:10;;;;;;;4.53;1.60;;;;;;;15.10;100.00;96535.00;5032827;28;20471;-53
2021/10/06 06:44:39;;;;;;;2.75;1.60;;;;;;;14.85;100.00;96542.22;5036856;28;20061;-52
2021/10/06 06:47:07;;;;;;;2.40;1.70;;;;;;;15.05;100.00;96538.19;5037292;28;20069;-49
2021/10/06 06:49:37;;;;;;;3.97;1.80;;;;;;;15.21;100.00;96539.97;5034155;28;20092;-48
2021/10/06 06:52:06;;;;;;;2.53;1.60;;;;;;;15.76;100.00;96540.88;5026487;28;20064;-47
2021/10/06 06:54:34;;;;;;;5.70;1.67;;;;;;;15.12;100.00;96541.81;5040422;28;20076;-50
2021/10/06 06:57:03;;;;;;;3.20;1.60;;;;;;;15.26;100.00;96547.41;5042106;28;20072;-48
2021/10/06 06:59:32;;;;;;;3.53;1.67;;;;;;;15.73;100.00;96547.41;5034598;28;20065;-53
2021/10/06 07:02:00;;;;;;;4.63;1.60;;;;;;;15.43;100.00;96543.69;5027030;28;20694;-54
2021/10/06 07:04:29;;;;;;;3.10;1.48;;;;;;;15.64;100.00;96553.72;5042904;28;20087;-52
2021/10/06 07:06:58;;;;;;;3.33;1.77;;;;;;;15.37;100.00;96547.03;5031850;28;20077;-50
2021/10/06 07:09:29;;;;;;;3.97;1.52;;;;;;;15.72;100.00;96544.91;5032036;28;20042;-48
2021/10/06 07:11:57;;;;;;;3.22;1.50;;;;;;;15.95;100.00;96542.28;5026823;28;20070;-50
2021/10/06 07:14:26;;;;;;;2.55;1.60;;;;;;;15.59;100.00;96550.78;5015462;28;20088;-51
2021/10/06 07:16:54;;;;;;;2.13;1.73;;;;;;;16.20;100.00;96554.41;5032175;28;20472;-55
2021/10/06 07:19:22;;;;;;;2.22;1.80;;;;;;;15.50;100.00;96554.44;5041951;28;20085;-59
2021/10/06 07:21:51;;;;;;;3.03;1.70;;;;;;;16.42;100.00;96558.06;5030562;28;20072;-47
2021/10/06 07:24:21;;;;;;;4.38;1.70;;;;;;;15.84;100.00;96560.28;5028065;28;20088;-46
2021/10/06 07:26:49;;;;;;;1.58;1.48;;;;;;;16.17;100.00;96560.06;5032955;28;20069;-49
2021/10/06 07:29:17;;;;;;;2.13;1.40;;;;;;;16.01;100.00;96568.19;5038656;28;20069;-53
2021/10/06 07:31:46;;;;;;;2.20;1.33;;;;;;;16.42;100.00;96574.03;5005469;28;20080;-46
2021/10/06 07:34:14;;;;;;;2.92;1.40;;;;;;;16.27;100.00;96567.81;5029455;28;20074;-55
2021/10/06 07:36:43;;;;;;;2.55;1.40;;;;;;;16.48;100.00;96580.47;5040153;28;20066;-50
2021/10/06 07:39:12;;;;;;;2.60;1.23;;;;;;;16.37;100.00;96571.06;5019635;28;20066;-54
2021/10/06 07:41:42;;;;;;;2.40;1.20;;;;;;;15.47;100.00;96571.56;5018344;28;20084;-52
2021/10/06 07:44:10;;;;;;;2.65;1.30;;;;;;;16.35;100.00;96584.56;5033653;28;20073;-52
2021/10/06 07:46:39;;;;;;;1.67;1.20;;;;;;;15.68;100.00;96584.28;5047242;28;20073;-50
2021/10/06 07:49:07;;;;;;;3.80;1.58;;;;;;;16.43;100.00;96580.19;5034314;28;20088;-55
2021/10/06 07:51:36;;;;;;;4.03;1.17;;;;;;;15.59;100.00;96585.31;5033107;28;20084;-53
2021/10/06 07:54:04;;;;;;;3.03;1.35;;;;;;;15.64;100.00;96583.78;5036195;28;20068;-57
2021/10/06 07:56:33;;;;;;;2.63;1.40;;;;;;;15.30;100.00;96586.75;5042664;28;20072;-50
2021/10/06 07:59:03;;;;;;;2.45;1.10;;;;;;;16.12;100.00;96581.06;5031216;28;20087;-50
2021/10/06 08:01:31;;;;;;;;;;;;;;;15.98;100.00;96584.50;5032120;28;20084;-56
2021/10/06 08:04:20;;;;;;;2.05;1.27;;;;;;;16.43;100.00;96581.00;5032534;28;19960;-55
2021/10/06 08:06:48;;;;;;;5.10;1.48;;;;;;;16.53;100.00;96588.75;5037408;28;20064;-53
2021/10/06 08:09:19;;;;;;;3.67;1.50;;;;;;;17.01;100.00;96594.69;5029872;28;20079;-52
2021/10/06 08:11:47;;;;;;;2.78;1.40;;;;;;;16.90;100.00;96587.16;5036327;28;20073;-51
2021/10/06 08:14:17;;;;;;;2.58;1.40;;;;;;;16.98;100.00;96589.72;5037089;28;20061;-56
2021/10/06 08:16:46;;;;;;;2.10;1.20;;;;;;;16.72;100.00;96598.06;5030413;28;20088;-54
2021/10/06 08:19:15;;;;;;;3.17;1.50;;;;;;;16.83;100.00;96595.88;5038379;28;20527;-52
2021/10/06 08:21:45;;;;;;;1.60;1.13;;;;;;;17.08;100.00;96600.94;5041831;28;20065;-56
2021/10/06 08:24:13;;;;;;;2.40;1.20;;;;;;;16.61;100.00;96594.00;5033801;28;20064;-49
2021/10/06 08:26:42;;;;;;;4.45;1.33;;;;;;;16.98;100.00;96595.88;5035299;28;20072;-51
2021/10/06 08:29:10;;;;;;;3.95;1.48;;;;;;;16.88;100.00;96597.97;5033882;28;20077;-51
2021/10/06 08:31:40;;;;;;;3.80;1.60;;;;;;;16.23;100.00;96588.63;5040950;28;20083;-47
2021/10/06 08:34:09;;;;;;;2.95;1.45;;;;;;;16.66;100.00;96589.00;5027040;28;20468;-54
2021/10/06 08:36:38;;;;;;;3.33;1.35;;;;;;;16.16;100.00;96594.84;5036198;28;20076;-51
2021/10/06 08:39:08;;;;;;;3.80;1.42;;;;;;;16.35;100.00;96597.88;5039912;28;20073;-58
2021/10/06 08:41:36;;;;;;;1.52;1.30;;;;;;;16.55;100.00;96600.91;5035878;28;20064;-54
2021/10/06 08:44:05;;;;;;;3.17;1.42;;;;;;;16.94;100.00;96599.09;5031264;28;20057;-52
2021/10/06 08:46:34;;;;;;;2.38;1.40;;;;;;;16.94;100.00;96605.25;5036315;28;20077;-56
2021/10/06 08:49:06;;;;;;;3.72;1.40;;;;;;;16.21;100.00;96601.31;5036032;28;20071;-52
2021/10/06 08:51:34;;;;;;;1.80;1.30;;;;;;;15.95;100.00;96617.56;5033272;28;20072;-54
2021/10/06 08:54:03;;;;;;;2.88;1.40;;;;;;;16.58;100.00;96611.16;5032810;28;20067;-58
2021/10/06 08:56:31;;;;;;;3.22;1.60;;;;;;;17.01;100.00;96608.84;5034887;28;20102;-56
2021/10/06 08:59:00;;;;;;;1.88;1.15;;;;;;;16.67;100.00;96606.63;5033289;28;20091;-53
2021/10/06 09:01:29;;;;;;;4.28;1.45;;;;;;;16.58;100.00;96618.34;5033369;28;20081;-57
2021/10/06 09:04:00;;;;;;;6.80;1.38;;;;;;;17.53;100.00;96621.28;5039817;28;20543;-53
2021/10/06 09:06:37;;;;;;;3.60;1.45;;;;;;;17.81;100.00;96627.84;5032334;28;20099;-56
2021/10/06 09:09:17;;;;;;;4.22;1.33;;;;;;;18.18;95.83;96618.84;5030366;28;20065;-56
2021/10/06 09:11:49;;;;;;;2.03;1.00;;;;;;;17.14;100.00;96628.72;5029766;28;20460;-54
2021/10/06 09:14:17;;;;;;;4.28;1.40;;;;;;;17.61;100.00;96628.34;5038199;28;20085;-51
2021/10/06 09:16:46;;;;;;;3.05;1.10;;;;;;;18.48;100.00;96622.25;5034650;28;20161;-54
2021/10/06 09:19:35;;;;;;;1.63;0.88;;;;;;;18.11;100.00;96621.44;5032320;28;20559;-53
2021/10/06 09:22:06;;;;;;;2.53;1.10;;;;;;;18.05;99.85;96622.19;5022524;28;20485;-54
2021/10/06 09:24:49;;;;;;;4.18;1.17;;;;;;;17.95;100.00;96629.66;5037239;28;20095;-51
2021/10/06 09:27:19;;;;;;;3.30;1.20;;;;;;;17.45;100.00;96633.91;5028525;28;20073;-51
2021/10/06 09:29:49;;;;;;;3.08;1.20;;;;;;;18.21;100.00;96632.66;5032611;28;20087;-55
2021/10/06 09:32:24;;;;;;;1.85;1.33;;;;;;;17.27;100.00;96634.22;5033467;28;20057;-53
2021/10/06 09:35:09;;;;;;;3.80;1.42;;;;;;;17.33;100.00;96639.66;5037340;28;20056;-54
2021/10/06 09:37:41;;;;;;;4.35;1.40;;;;;;;17.38;100.00;96648.94;5028744;28;20562;-48
2021/10/06 09:40:12;;;;;;;5.03;1.20;;;;;;;17.71;100.00;96644.09;5021217;28;20449;-55
2021/10/06 09:42:45;;;;;;;1.55;1.27;;;;;;;16.90;100.00;96651.91;5027582;28;20069;-53
2021/10/06 09:45:21;;;;;;;2.03;1.15;;;;;;;17.30;100.00;96648.03;5039729;28;20071;-51
2021/10/06 09:48:06;;;;;;;2.30;1.25;;;;;;;17.55;100.00;96635.28;5027684;28;20064;-53
2021/10/06 09:50:36;;;;;;;3.05;1.20;;;;;;;18.40;97.03;96636.53;5028894;28;20076;-51
2021/10/06 09:53:12;;;;;;;4.80;1.35;;;;;;;18.14;92.02;96639.75;5026685;28;20109;-50
2021/10/06 09:55:41;;;;;;;3.25;1.23;;;;;;;18.34;86.76;96648.00;5041471;28;20085;-51
2021/10/06 09:58:10;;;;;;;3.70;1.15;;;;;;;18.20;90.60;96651.50;5031979;28;20259;-58
2021/10/06 10:00:40;;;;;;;3.70;1.30;;;;;;;18.04;80.83;96652.56;5035529;28;20073;-57
2021/10/06 10:03:09;;;;;;;3.25;1.10;;;;;;;18.23;81.18;96643.94;5031551;28;20073;-53
2021/10/06 10:05:39;;;;;;;3.05;1.42;;;;;;;17.92;88.02;96654.84;5028588;28;20102;-48
2021/10/06 10:08:10;;;;;;;2.58;1.08;;;;;;;17.48;85.33;96657.50;5024041;28;20076;-52
2021/10/06 10:10:39;;;;;;;1.60;1.10;;;;;;;17.39;87.85;96654.09;5030418;28;20561;-58
2021/10/06 10:13:08;;;;;;;3.42;1.20;;;;;;;17.11;94.73;96656.56;5038252;28;20089;-55
2021/10/06 10:15:36;;;;;;;2.67;1.20;;;;;;;18.01;92.04;96658.28;5011958;28;20559;-48
2021/10/06 10:18:10;;;;;;;2.95;1.20;;;;;;;17.23;97.74;96662.25;5003860;28;20062;-55
2021/10/06 10:20:41;;;;;;;2.33;1.35;;;;;;;17.29;97.94;96654.38;5007381;28;20074;-49
2021/10/06 10:23:13;;;;;;;4.32;1.13;;;;;;;17.58;97.84;96655.41;5033555;28;20527;-53
2021/10/06 10:25:44;;;;;;;3.17;1.30;;;;;;;18.07;94.92;96641.50;5037168;28;20085;-56
2021/10/06 10:28:14;;;;;;;1.00;0.90;;;;;;;17.59;91.78;96654.41;5037314;28;20469;-57
2021/10/06 10:30:59;;;;;;;2.17;1.10;;;;;;;18.21;96.45;96648.66;5037641;28;20088;-52
2021/10/06 10:33:38;;;;;;;1.85;1.20;;;;;;;17.85;97.81;96648.63;5019521;28;20081;-53
2021/10/06 10:36:49;;;;;;;1.40;1.10;;;;;;;18.64;90.92;96645.19;5025414;28;20076;-58
2021/10/06 10:39:51;;;;;;;1.92;1.10;;;;;;;18.63;81.66;96647.03;5029010;28;20551;-53
2021/10/06 10:42:19;;;;;;;2.92;1.23;;;;;;;19.16;89.74;96652.06;5027722;28;20065;-52
2021/10/06 10:44:48;;;;;;;2.50;1.05;;;;;;;19.25;86.30;96647.41;5031627;28;20083;-49
2021/10/06 10:47:16;;;;;;;3.40;1.20;;;;;;;18.91;77.95;96638.28;5035967;28;20588;-52
2021/10/06 10:49:46;;;;;;;4.47;1.20;;;;;;;18.66;82.72;96648.53;5035167;28;20118;-55
2021/10/06 10:52:15;;;;;;;1.90;1.20;;;;;;;17.98;91.14;96654.13;5027788;28;20081;-58
2021/10/06 10:54:44;;;;;;;2.85;1.10;;;;;;;17.56;91.12;96649.44;5038878;28;20534;-56
2021/10/06 10:57:25;;;;;;;2.35;1.20;;;;;;;18.14;86.53;96649.59;5033527;28;20494;-47
2021/10/06 10:59:55;;;;;;;1.52;1.10;;;;;;;17.66;91.25;96651.84;5033226;28;20065;-53
2021/10/06 11:02:29;;;;;;;2.95;1.20;;;;;;;17.61;93.27;96648.88;5036190;28;20126;-54
2021/10/06 11:04:59;;;;;;;3.80;1.58;;;;;;;17.16;92.27;96648.00;5037957;28;20080;-54
2021/10/06 11:07:28;;;;;;;1.52;1.20;;;;;;;17.28;90.27;96642.06;5035160;28;20133;-56
2021/10/06 11:09:58;;;;;;;2.22;1.20;;;;;;;18.38;78.28;96629.75;5032162;28;20602;-56
2021/10/06 11:12:55;;;;;;;2.40;1.20;;;;;;;18.11;74.79;96624.09;5041023;28;20073;-54
2021/10/06 11:15:28;;;;;;;1.60;1.20;;;;;;;18.47;73.67;96633.94;5034226;28;20061;-47
2021/10/06 11:18:18;;;;;;;2.75;1.10;;;;;;;18.67;71.75;96626.94;5029663;28;20068;-55
2021/10/06 11:20:49;;;;;;;0.90;0.90;;;;;;;17.91;72.78;96636.38;5032159;28;20065;-57
2021/10/06 11:23:52;;;;;;;4.35;1.20;;;;;;;18.80;74.94;96626.28;5028944;28;20077;-51
2021/10/06 11:26:27;;;;;;;2.65;1.30;;;;;;;18.18;77.81;96633.00;5015484;28;20061;-51
2021/10/06 11:28:58;;;;;;;3.70;1.30;;;;;;;18.18;69.74;96632.19;5035151;28;20085;-50
2021/10/06 11:31:28;;;;;;;2.03;1.08;;;;;;;17.79;71.00;96642.19;5035167;28;20475;-56
2021/10/06 11:33:57;;;;;;;3.35;1.40;;;;;;;17.91;77.20;96636.38;5009250;28;20138;-50
2021/10/06 11:36:27;;;;;;;4.35;1.30;;;;;;;17.78;75.08;96645.03;5019008;28;20080;-54
2021/10/06 11:38:57;;;;;;;3.65;1.40;;;;;;;18.01;71.34;96639.59;5022955;28;20060;-48
2021/10/06 11:41:26;;;;;;;3.95;1.10;;;;;;;17.74;74.45;96641.06;5030225;28;20089;-57